Time;durP1;ratioP1;P1;durP2;ratioP2;P2;SDS_P1;SDS_P2;PMS_P1;PMS_P2;Temp;Humidity;BMP_temperature;BMP_pressure;BME280_temperature;BME280_humidity;BME280_pressure;Samples;Min_cycle;Max_cycle;Signal;HPM_P1;HPM_P2
2021/01/09 00:01:04;;;;;;;12.10;9.33;;;1.90;99.90;;;;;;4965449;28;21034;-51
2021/01/09 00:03:31;;;;;;;10.57;8.33;;;1.90;99.90;;;;;;4961865;28;21011;-52
2021/01/09 00:05:59;;;;;;;11.57;8.73;;;1.90;99.90;;;;;;4970869;28;20587;-51
2021/01/09 00:08:26;;;;;;;12.63;9.23;;;1.90;99.90;;;;;;4968751;28;21007;-53
2021/01/09 00:10:54;;;;;;;13.90;9.53;;;1.90;99.90;;;;;;4954556;28;21370;-53
2021/01/09 00:13:21;;;;;;;13.17;8.73;;;1.90;99.90;;;;;;4949932;28;21080;-50
2021/01/09 00:15:49;;;;;;;12.23;8.93;;;1.90;99.90;;;;;;4958249;28;20499;-51
2021/01/09 00:18:17;;;;;;;12.67;9.47;;;1.90;99.90;;;;;;4965339;28;20481;-51
2021/01/09 00:20:44;;;;;;;13.33;9.10;;;1.90;99.90;;;;;;4953570;28;20515;-51
2021/01/09 00:23:12;;;;;;;13.23;9.20;;;1.90;99.90;;;;;;4955687;28;20562;-51
2021/01/09 00:25:39;;;;;;;11.87;8.93;;;1.90;99.90;;;;;;4966548;28;20542;-51
2021/01/09 00:28:08;;;;;;;13.03;9.30;;;1.90;99.90;;;;;;4977305;28;20516;-51
2021/01/09 00:30:35;;;;;;;11.97;8.93;;;1.90;99.90;;;;;;4978697;28;20491;-50
2021/01/09 00:33:02;;;;;;;13.93;10.37;;;1.90;99.90;;;;;;4972595;28;20519;-50
2021/01/09 00:35:30;;;;;;;16.10;9.43;;;1.80;99.90;;;;;;4963334;28;20472;-51
2021/01/09 00:37:57;;;;;;;14.07;9.97;;;1.80;99.90;;;;;;4957292;28;20481;-50
2021/01/09 00:40:24;;;;;;;12.70;9.57;;;1.80;99.90;;;;;;4954538;28;20561;-50
2021/01/09 00:42:51;;;;;;;13.17;9.70;;;1.80;99.90;;;;;;4961246;28;20994;-50
2021/01/09 00:45:19;;;;;;;13.63;10.57;;;1.80;99.90;;;;;;4987621;28;20884;-51
2021/01/09 00:47:47;;;;;;;15.10;10.43;;;1.80;99.90;;;;;;4966754;28;20495;-51
2021/01/09 00:50:17;;;;;;;14.13;10.47;;;1.80;99.90;;;;;;4955839;28;20491;-51
2021/01/09 00:52:44;;;;;;;15.97;10.87;;;1.80;99.90;;;;;;4927421;28;20481;-51
2021/01/09 00:55:14;;;;;;;15.17;10.87;;;1.80;99.90;;;;;;4976065;28;20523;-51
2021/01/09 00:57:41;;;;;;;17.33;10.90;;;1.80;99.90;;;;;;4923764;28;20513;-53
2021/01/09 01:00:10;;;;;;;14.50;10.80;;;1.90;99.90;;;;;;4956760;28;20487;-54
2021/01/09 01:02:39;;;;;;;15.73;11.07;;;1.90;99.90;;;;;;4948535;28;20488;-50
2021/01/09 01:05:09;;;;;;;14.73;10.60;;;1.90;99.90;;;;;;4965786;28;20496;-50
2021/01/09 01:07:36;;;;;;;15.93;10.97;;;1.90;99.90;;;;;;4982834;28;20503;-52
2021/01/09 01:10:05;;;;;;;15.27;11.63;;;1.90;99.90;;;;;;4961879;28;20570;-51
2021/01/09 01:12:33;;;;;;;16.00;11.63;;;1.90;99.90;;;;;;4958832;28;20989;-50
2021/01/09 01:15:00;;;;;;;16.33;11.73;;;1.80;99.90;;;;;;4966039;28;20940;-50
2021/01/09 01:17:28;;;;;;;17.97;12.43;;;1.90;99.90;;;;;;4948740;28;20503;-51
2021/01/09 01:19:56;;;;;;;18.47;12.33;;;1.80;99.90;;;;;;4942719;28;20475;-51
2021/01/09 01:22:23;;;;;;;17.43;11.80;;;1.80;99.90;;;;;;4964977;28;20495;-50
2021/01/09 01:24:51;;;;;;;15.83;11.27;;;1.80;99.90;;;;;;4932265;28;20535;-50
2021/01/09 01:27:18;;;;;;;16.53;11.63;;;1.80;99.90;;;;;;4963038;28;20504;-51
2021/01/09 01:29:46;;;;;;;17.10;12.30;;;2.00;99.90;;;;;;4932159;28;21002;-52
2021/01/09 01:32:13;;;;;;;17.63;12.87;;;1.90;99.90;;;;;;4942831;28;20488;-51
2021/01/09 01:34:40;;;;;;;19.40;13.13;;;1.90;99.90;;;;;;4946504;28;20481;-51
2021/01/09 01:37:09;;;;;;;19.50;13.40;;;1.80;99.90;;;;;;4970219;28;20479;-51
2021/01/09 01:39:36;;;;;;;19.23;13.03;;;1.80;99.90;;;;;;4923046;28;20583;-50
2021/01/09 01:42:04;;;;;;;19.70;12.97;;;1.80;99.90;;;;;;4945510;28;21066;-51
2021/01/09 01:44:32;;;;;;;19.87;13.20;;;1.80;99.90;;;;;;4968893;28;20541;-51
2021/01/09 01:47:00;;;;;;;19.27;13.07;;;1.80;99.90;;;;;;4955310;28;20532;-50
2021/01/09 01:49:29;;;;;;;17.47;13.93;;;1.80;99.90;;;;;;4938099;28;20551;-50
2021/01/09 01:51:57;;;;;;;19.03;13.63;;;1.80;99.90;;;;;;4911610;28;20969;-51
2021/01/09 01:54:25;;;;;;;16.70;12.93;;;1.80;99.90;;;;;;4920618;28;20492;-51
2021/01/09 01:56:54;;;;;;;17.47;12.73;;;1.80;99.90;;;;;;4923878;28;20915;-53
2021/01/09 01:59:21;;;;;;;18.13;13.07;;;1.80;99.90;;;;;;4931045;28;20530;-51
2021/01/09 02:01:50;;;;;;;19.00;14.03;;;1.80;99.90;;;;;;4936186;28;20542;-50
2021/01/09 02:04:19;;;;;;;20.73;13.93;;;1.80;99.90;;;;;;4921986;28;20498;-51
2021/01/09 02:06:48;;;;;;;18.93;14.23;;;1.90;99.90;;;;;;4925964;28;20538;-51
2021/01/09 02:09:22;;;;;;;21.20;14.60;;;1.90;99.90;;;;;;4959979;28;20489;-50
2021/01/09 02:12:02;;;;;;;25.93;17.33;;;1.90;99.90;;;;;;4954358;28;21352;-53
2021/01/09 02:14:39;;;;;;;25.90;17.53;;;1.90;99.90;;;;;;4950199;28;20487;-50
2021/01/09 02:17:07;;;;;;;28.87;18.30;;;1.80;99.90;;;;;;4929066;28;21049;-50
2021/01/09 02:19:38;;;;;;;29.90;19.37;;;1.80;99.90;;;;;;4967065;28;20484;-50
2021/01/09 02:22:07;;;;;;;29.93;18.77;;;1.80;99.90;;;;;;4941457;28;20483;-50
2021/01/09 02:24:35;;;;;;;30.00;19.10;;;1.80;99.90;;;;;;4950507;28;20500;-50
2021/01/09 02:27:04;;;;;;;32.43;20.30;;;1.80;99.90;;;;;;4934511;28;20488;-52
2021/01/09 02:29:35;;;;;;;30.90;19.63;;;1.80;99.90;;;;;;4959614;28;20504;-51
2021/01/09 02:32:05;;;;;;;33.60;20.70;;;1.80;99.90;;;;;;4954079;28;20511;-50
2021/01/09 02:34:39;;;;;;;31.10;20.03;;;1.80;99.90;;;;;;4941517;28;20580;-51
2021/01/09 02:37:08;;;;;;;30.03;20.07;;;1.80;99.90;;;;;;4941761;28;20522;-51
2021/01/09 02:39:36;;;;;;;30.73;19.27;;;1.70;99.90;;;;;;4925146;28;20531;-50
2021/01/09 02:42:05;;;;;;;34.73;21.13;;;1.80;99.90;;;;;;4963574;28;20555;-51
2021/01/09 02:44:33;;;;;;;32.17;20.17;;;1.80;99.90;;;;;;4934656;28;20518;-50
2021/01/09 02:47:00;;;;;;;33.60;20.20;;;1.70;99.90;;;;;;4971872;28;20525;-51
2021/01/09 02:49:28;;;;;;;33.03;19.63;;;1.70;99.90;;;;;;4926663;28;20498;-50
2021/01/09 02:51:55;;;;;;;33.30;20.60;;;1.70;99.90;;;;;;4925530;28;20557;-51
2021/01/09 02:54:23;;;;;;;33.83;21.10;;;1.80;99.90;;;;;;4944590;28;20523;-51
2021/01/09 02:56:51;;;;;;;33.73;21.67;;;1.80;99.90;;;;;;4945064;28;20528;-52
2021/01/09 02:59:18;;;;;;;34.53;21.60;;;1.80;99.90;;;;;;4896138;28;20612;-52
2021/01/09 03:01:48;;;;;;;43.60;23.60;;;1.80;99.90;;;;;;4931673;28;20484;-51
2021/01/09 03:04:17;;;;;;;44.70;25.60;;;1.70;99.90;;;;;;4968056;28;20498;-51
2021/01/09 03:06:44;;;;;;;49.87;27.77;;;1.70;99.90;;;;;;4932122;28;20491;-51
2021/01/09 03:09:12;;;;;;;47.17;26.10;;;1.70;99.90;;;;;;4917825;28;20491;-50
2021/01/09 03:11:40;;;;;;;48.53;26.53;;;1.70;99.90;;;;;;4972070;28;20488;-51
2021/01/09 03:14:08;;;;;;;45.80;27.03;;;1.70;99.90;;;;;;4943687;28;20500;-52
2021/01/09 03:16:35;;;;;;;47.77;25.40;;;1.70;99.90;;;;;;4994372;28;20483;-50
2021/01/09 03:19:03;;;;;;;43.27;25.03;;;1.70;99.90;;;;;;4984037;28;20496;-50
2021/01/09 03:21:31;;;;;;;44.83;25.93;;;1.60;99.90;;;;;;4954429;28;20505;-51
2021/01/09 03:23:58;;;;;;;44.90;26.17;;;1.70;99.90;;;;;;4930221;28;20494;-52
2021/01/09 03:26:26;;;;;;;46.53;26.70;;;1.60;99.90;;;;;;4951218;28;20496;-51
2021/01/09 03:28:53;;;;;;;45.67;26.67;;;1.70;99.90;;;;;;4970471;28;20924;-51
2021/01/09 03:31:22;;;;;;;39.63;21.90;;;1.70;99.90;;;;;;4957637;28;20491;-51
2021/01/09 03:33:49;;;;;;;35.17;20.47;;;1.60;99.90;;;;;;4943416;28;20526;-51
2021/01/09 03:36:17;;;;;;;29.03;17.83;;;1.60;99.90;;;;;;4942048;28;20527;-51
2021/01/09 03:38:44;;;;;;;30.30;18.43;;;1.60;99.90;;;;;;4963047;28;20480;-50
2021/01/09 03:41:12;;;;;;;27.57;18.30;;;1.60;99.90;;;;;;4912113;28;20501;-50
2021/01/09 03:43:39;;;;;;;29.33;18.57;;;1.60;99.90;;;;;;4952884;28;20579;-50
2021/01/09 03:46:07;;;;;;;29.73;18.83;;;1.70;99.90;;;;;;4935316;28;20500;-51
2021/01/09 03:48:35;;;;;;;30.77;19.43;;;1.70;99.90;;;;;;4905391;28;20571;-53
2021/01/09 03:51:03;;;;;;;28.73;18.33;;;1.70;99.90;;;;;;4954933;28;20529;-50
2021/01/09 03:53:30;;;;;;;28.37;18.33;;;1.70;99.90;;;;;;4943630;28;20582;-50
2021/01/09 03:55:58;;;;;;;31.87;19.67;;;1.70;99.90;;;;;;4927397;28;21010;-53
2021/01/09 03:58:25;;;;;;;33.63;20.73;;;1.70;99.90;;;;;;5006478;28;20812;-51
2021/01/09 04:00:53;;;;;;;31.80;20.07;;;1.70;99.90;;;;;;4961552;28;20568;-50
2021/01/09 04:03:21;;;;;;;36.87;21.80;;;1.70;99.90;;;;;;4940593;28;20506;-50
2021/01/09 04:05:49;;;;;;;33.33;21.73;;;1.70;99.90;;;;;;4926213;28;20488;-51
2021/01/09 04:08:17;;;;;;;31.80;20.17;;;1.70;99.90;;;;;;4951981;28;21087;-52
2021/01/09 04:10:44;;;;;;;34.03;20.63;;;1.70;99.90;;;;;;4962220;28;20548;-50
2021/01/09 04:13:12;;;;;;;37.13;22.43;;;1.70;99.90;;;;;;4958187;28;20496;-51
2021/01/09 04:15:39;;;;;;;32.93;21.10;;;1.70;99.90;;;;;;4961772;28;21017;-50
2021/01/09 04:18:06;;;;;;;35.27;22.30;;;1.70;99.90;;;;;;4955714;28;20487;-51
2021/01/09 04:20:34;;;;;;;32.90;20.97;;;1.70;99.90;;;;;;4930791;28;20562;-50
2021/01/09 04:23:02;;;;;;;31.77;20.47;;;1.70;99.90;;;;;;4940953;28;20503;-51
2021/01/09 04:25:30;;;;;;;30.27;19.43;;;1.70;99.90;;;;;;4947150;28;20491;-51
2021/01/09 04:27:58;;;;;;;28.53;18.03;;;1.70;99.90;;;;;;4927613;28;20496;-51
2021/01/09 04:30:25;;;;;;;30.00;19.35;;;1.70;99.90;;;;;;4972674;28;20919;-51
2021/01/09 04:32:53;;;;;;;24.50;16.67;;;1.70;99.90;;;;;;4947020;28;20248;-51
2021/01/09 04:35:20;;;;;;;23.43;15.67;;;1.70;99.90;;;;;;4934820;28;20540;-50
2021/01/09 04:37:47;;;;;;;23.30;15.07;;;1.70;99.90;;;;;;4961529;28;20500;-51
2021/01/09 04:40:16;;;;;;;20.33;13.47;;;1.70;99.90;;;;;;4969409;28;20488;-50
2021/01/09 04:42:43;;;;;;;18.67;12.83;;;1.70;99.90;;;;;;4890347;28;21036;-51
2021/01/09 04:45:13;;;;;;;18.70;13.47;;;1.70;99.90;;;;;;4937490;28;20855;-50
2021/01/09 04:47:41;;;;;;;19.40;13.33;;;1.70;99.90;;;;;;4931633;28;20491;-51
2021/01/09 04:50:09;;;;;;;18.90;13.53;;;1.60;99.90;;;;;;4962492;28;20498;-51
2021/01/09 04:52:38;;;;;;;21.77;14.17;;;1.70;99.90;;;;;;4934929;28;20491;-51
2021/01/09 04:55:07;;;;;;;18.57;13.27;;;1.70;99.90;;;;;;4976952;28;21029;-52
2021/01/09 04:57:35;;;;;;;20.87;13.93;;;1.60;99.90;;;;;;4916084;28;20947;-51
2021/01/09 05:00:05;;;;;;;18.80;12.97;;;1.70;99.90;;;;;;4947546;28;20502;-51
2021/01/09 05:02:36;;;;;;;20.57;13.80;;;1.60;99.90;;;;;;4953603;28;20599;-50
2021/01/09 05:05:06;;;;;;;17.60;12.43;;;1.60;99.90;;;;;;4918658;28;20503;-51
2021/01/09 05:07:34;;;;;;;21.47;13.87;;;1.60;99.90;;;;;;4981977;28;21036;-51
2021/01/09 05:10:04;;;;;;;19.70;13.10;;;1.60;99.90;;;;;;5006589;28;20497;-50
2021/01/09 05:12:33;;;;;;;18.20;13.07;;;1.60;99.90;;;;;;4949689;28;20890;-50
2021/01/09 05:15:03;;;;;;;18.93;13.47;;;1.60;99.90;;;;;;4970575;28;20496;-52
2021/01/09 05:17:31;;;;;;;18.63;12.60;;;1.60;99.90;;;;;;4951577;28;20489;-51
2021/01/09 05:19:59;;;;;;;20.17;13.03;;;1.60;99.90;;;;;;4912661;28;20563;-54
2021/01/09 05:22:27;;;;;;;21.70;14.10;;;1.60;99.90;;;;;;4978655;28;20579;-50
2021/01/09 05:24:55;;;;;;;17.43;13.23;;;1.60;99.90;;;;;;4947068;28;20710;-50
2021/01/09 05:27:23;;;;;;;19.77;13.03;;;1.60;99.90;;;;;;4979112;28;20490;-51
2021/01/09 05:29:53;;;;;;;17.63;12.70;;;1.60;99.90;;;;;;4944652;28;20542;-50
2021/01/09 05:32:21;;;;;;;19.20;13.23;;;1.60;99.90;;;;;;4937768;28;20568;-51
2021/01/09 05:34:52;;;;;;;18.80;13.03;;;1.70;99.90;;;;;;4983732;28;20493;-51
2021/01/09 05:37:22;;;;;;;19.30;13.67;;;1.70;99.90;;;;;;4956486;28;20951;-51
2021/01/09 05:39:53;;;;;;;21.70;13.77;;;1.70;99.90;;;;;;4969380;28;20863;-51
2021/01/09 05:42:23;;;;;;;18.30;12.97;;;1.70;99.90;;;;;;4960924;28;20583;-50
2021/01/09 05:44:55;;;;;;;18.40;13.73;;;1.60;99.90;;;;;;4935687;28;20912;-52
2021/01/09 05:47:26;;;;;;;18.60;13.50;;;1.60;99.90;;;;;;4964072;28;20487;-51
2021/01/09 05:49:58;;;;;;;20.40;14.03;;;1.60;99.90;;;;;;4956639;28;20492;-51
2021/01/09 05:52:28;;;;;;;20.30;14.30;;;1.70;99.90;;;;;;4981766;28;20487;-52
2021/01/09 05:54:56;;;;;;;18.17;13.50;;;1.70;99.90;;;;;;4939221;28;21073;-51
2021/01/09 05:57:29;;;;;;;20.00;14.03;;;1.70;99.90;;;;;;4938809;28;20514;-50
2021/01/09 05:59:59;;;;;;;21.87;14.40;;;1.70;99.90;;;;;;4956934;28;20485;-51
2021/01/09 06:02:29;;;;;;;19.50;13.87;;;1.70;99.90;;;;;;4962499;28;20478;-52
2021/01/09 06:04:59;;;;;;;20.03;13.80;;;1.70;99.90;;;;;;4957895;28;20521;-51
2021/01/09 06:07:34;;;;;;;19.93;14.27;;;1.60;99.90;;;;;;4933090;28;20502;-50
2021/01/09 06:10:09;;;;;;;18.87;14.00;;;1.60;99.90;;;;;;4935550;28;20499;-50
2021/01/09 06:12:57;;;;;;;21.67;15.07;;;1.60;99.90;;;;;;4946928;28;20585;-51
2021/01/09 06:15:25;;;;;;;21.10;14.47;;;1.70;99.90;;;;;;4940461;28;20503;-51
2021/01/09 06:17:54;;;;;;;20.67;14.23;;;1.60;99.90;;;;;;4963320;28;20475;-50
2021/01/09 06:20:22;;;;;;;19.23;13.83;;;1.60;99.90;;;;;;4965932;28;21027;-54
2021/01/09 06:22:51;;;;;;;20.17;13.77;;;1.60;99.90;;;;;;4965224;28;20560;-50
2021/01/09 06:25:18;;;;;;;20.50;14.47;;;1.60;99.90;;;;;;4954208;28;20496;-50
2021/01/09 06:27:51;;;;;;;17.53;12.60;;;1.60;99.90;;;;;;4949943;28;20500;-51
2021/01/09 06:30:21;;;;;;;18.73;12.17;;;1.60;99.90;;;;;;4970923;28;20484;-50
2021/01/09 06:32:56;;;;;;;17.30;12.60;;;1.50;99.90;;;;;;4880766;28;20481;-50
2021/01/09 06:35:24;;;;;;;18.17;12.90;;;1.50;99.90;;;;;;4901087;28;20516;-50
2021/01/09 06:37:53;;;;;;;19.27;12.03;;;1.50;99.90;;;;;;4931568;28;20475;-50
2021/01/09 06:40:22;;;;;;;17.27;11.60;;;1.50;99.90;;;;;;4953127;28;20480;-50
2021/01/09 06:42:50;;;;;;;16.23;11.53;;;1.50;99.90;;;;;;4934333;28;21014;-50
2021/01/09 06:45:17;;;;;;;15.10;10.97;;;1.50;99.90;;;;;;4919445;28;20492;-50
2021/01/09 06:47:58;;;;;;;17.13;11.47;;;1.50;99.90;;;;;;4941918;28;20602;-51
2021/01/09 06:50:34;;;;;;;16.80;10.90;;;1.50;99.90;;;;;;4906918;28;20476;-50
2021/01/09 06:53:04;;;;;;;16.13;10.83;;;1.50;99.90;;;;;;4880100;28;20534;-50
2021/01/09 06:56:08;;;;;;;17.03;11.40;;;1.50;99.90;;;;;;4944354;28;20892;-50
2021/01/09 06:58:37;;;;;;;17.50;11.17;;;1.50;99.90;;;;;;4935659;28;20905;-51
2021/01/09 07:01:21;;;;;;;16.23;11.07;;;1.50;99.90;;;;;;4968790;28;20537;-51
2021/01/09 07:03:49;;;;;;;16.93;11.17;;;1.40;99.90;;;;;;4933059;28;20499;-50
2021/01/09 07:06:57;;;;;;;16.90;11.17;;;1.50;99.90;;;;;;4955348;28;20498;-51
2021/01/09 07:09:25;;;;;;;18.10;11.30;;;1.50;99.90;;;;;;4927689;28;20578;-51
2021/01/09 07:11:54;;;;;;;15.93;11.50;;;1.50;99.90;;;;;;4949287;28;20553;-51
2021/01/09 07:14:21;;;;;;;18.17;12.33;;;1.50;99.90;;;;;;4962987;28;20488;-52
2021/01/09 07:16:49;;;;;;;18.20;12.20;;;1.50;99.90;;;;;;4965715;28;20555;-51
2021/01/09 07:19:18;;;;;;;19.10;12.23;;;1.40;99.90;;;;;;4929010;28;20682;-50
2021/01/09 07:21:47;;;;;;;16.77;11.20;;;1.40;99.90;;;;;;4968886;28;20547;-51
2021/01/09 07:24:18;;;;;;;17.53;11.43;;;1.40;99.90;;;;;;4907171;28;20496;-50
2021/01/09 07:26:49;;;;;;;19.67;12.60;;;1.40;99.90;;;;;;4981149;28;20892;-51
2021/01/09 07:29:25;;;;;;;19.70;12.17;;;1.40;99.90;;;;;;4931694;28;20912;-51
2021/01/09 07:31:53;;;;;;;18.13;12.23;;;1.40;99.90;;;;;;4954234;28;20491;-50
2021/01/09 07:34:27;;;;;;;20.13;12.67;;;1.40;99.90;;;;;;4931661;28;20487;-52
2021/01/09 07:37:00;;;;;;;20.88;12.07;;;1.40;99.90;;;;;;3668547;28;10022535;-51
2021/01/09 07:39:29;;;;;;;17.65;12.32;;;1.40;99.90;;;;;;2720523;28;10002053;-50
2021/01/09 07:41:56;;;;;;;20.40;12.70;;;1.40;99.90;;;;;;4932201;28;20820;-52
2021/01/09 07:44:24;;;;;;;22.30;13.67;;;1.30;99.90;;;;;;4925861;28;20495;-50
2021/01/09 07:46:56;;;;;;;19.93;13.10;;;1.30;99.90;;;;;;4942273;28;20555;-52
2021/01/09 07:49:28;;;;;;;19.03;12.03;;;1.30;99.90;;;;;;4936815;28;20548;-50
2021/01/09 07:52:01;;;;;;;19.90;12.87;;;1.30;99.90;;;;;;4913730;28;20507;-50
2021/01/09 07:54:36;;;;;;;20.43;12.83;;;1.30;99.90;;;;;;4985656;28;20486;-52
2021/01/09 07:57:05;;;;;;;20.90;13.10;;;1.30;99.90;;;;;;4937848;28;20564;-51
2021/01/09 07:59:32;;;;;;;20.80;13.40;;;1.30;99.90;;;;;;4945954;28;20511;-51
2021/01/09 08:02:00;;;;;;;21.20;13.80;;;1.30;99.90;;;;;;4955142;28;20495;-54
2021/01/09 08:04:29;;;;;;;22.40;14.27;;;1.30;99.90;;;;;;4961905;28;20575;-50
2021/01/09 08:06:56;;;;;;;23.03;15.13;;;1.30;99.90;;;;;;4976497;28;20886;-51
2021/01/09 08:09:28;;;;;;;22.13;14.17;;;1.30;99.90;;;;;;4948769;28;20911;-51
2021/01/09 08:12:02;;;;;;;22.33;14.90;;;1.30;99.90;;;;;;4912628;28;20572;-51
2021/01/09 08:14:29;;;;;;;22.03;14.73;;;1.40;99.90;;;;;;4936276;28;20493;-50
2021/01/09 08:17:09;;;;;;;21.93;13.83;;;1.40;99.90;;;;;;4946404;28;20781;-51
2021/01/09 08:19:38;;;;;;;23.70;14.93;;;1.40;99.90;;;;;;4927916;28;21177;-50
2021/01/09 08:22:06;;;;;;;20.50;13.97;;;1.40;99.90;;;;;;4954574;28;20551;-53
2021/01/09 08:24:33;;;;;;;20.83;14.37;;;1.40;99.90;;;;;;4952878;28;21203;-52
2021/01/09 08:27:01;;;;;;;19.97;13.80;;;1.40;99.90;;;;;;4957462;28;20495;-51
2021/01/09 08:29:29;;;;;;;19.63;13.93;;;1.40;99.90;;;;;;4949202;28;20508;-51
2021/01/09 08:31:56;;;;;;;19.30;13.00;;;1.40;99.90;;;;;;4957102;28;20499;-50
2021/01/09 08:34:25;;;;;;;21.57;13.97;;;1.50;99.90;;;;;;4948341;28;20499;-50
2021/01/09 08:36:55;;;;;;;20.40;13.10;;;1.50;99.90;;;;;;4946510;28;20537;-52
2021/01/09 08:39:23;;;;;;;20.90;13.23;;;1.50;99.90;;;;;;4924216;28;20515;-50
2021/01/09 08:41:52;;;;;;;19.83;13.40;;;1.50;99.90;;;;;;4917636;28;21288;-50
2021/01/09 08:44:19;;;;;;;19.47;12.60;;;1.50;99.90;;;;;;4944504;28;20483;-51
2021/01/09 08:46:47;;;;;;;17.97;12.20;;;1.50;99.90;;;;;;4930751;28;20639;-50
2021/01/09 08:49:26;;;;;;;18.93;12.77;;;1.60;99.90;;;;;;4946437;28;20496;-50
2021/01/09 08:52:03;;;;;;;17.17;11.87;;;1.60;99.90;;;;;;4957329;28;20536;-51
2021/01/09 08:54:31;;;;;;;18.90;12.63;;;1.60;99.90;;;;;;4938807;28;20835;-52
2021/01/09 08:57:02;;;;;;;19.03;12.87;;;1.60;99.90;;;;;;4997954;28;21112;-51
2021/01/09 08:59:29;;;;;;;19.23;12.87;;;1.70;99.90;;;;;;4970120;28;20480;-50
2021/01/09 09:02:01;;;;;;;17.87;12.00;;;1.70;99.90;;;;;;4960853;28;20483;-52
2021/01/09 09:04:30;;;;;;;17.90;12.40;;;1.60;99.90;;;;;;4944453;28;20502;-50
2021/01/09 09:07:04;;;;;;;18.03;11.33;;;1.60;99.90;;;;;;4956302;28;20534;-50
2021/01/09 09:09:34;;;;;;;16.10;10.60;;;1.50;99.90;;;;;;5004003;28;20468;-50
2021/01/09 09:12:01;;;;;;;19.07;11.57;;;1.50;99.90;;;;;;4996891;28;21030;-51
2021/01/09 09:14:29;;;;;;;17.77;11.73;;;1.50;99.90;;;;;;4996789;28;20488;-50
2021/01/09 09:17:01;;;;;;;17.27;12.13;;;1.60;99.90;;;;;;4997361;28;20492;-50
2021/01/09 09:19:35;;;;;;;18.20;12.20;;;1.60;99.90;;;;;;4995633;28;20495;-51
2021/01/09 09:22:03;;;;;;;16.83;11.10;;;1.60;99.90;;;;;;4997565;28;20523;-52
2021/01/09 09:24:39;;;;;;;17.17;11.50;;;1.60;99.90;;;;;;4997525;28;20483;-50
2021/01/09 09:27:24;;;;;;;16.93;11.23;;;1.60;99.90;;;;;;4997540;28;20476;-50
2021/01/09 09:30:06;;;;;;;16.27;11.20;;;1.60;99.90;;;;;;4994666;28;20471;-51
2021/01/09 09:32:34;;;;;;;16.33;11.27;;;1.60;99.90;;;;;;4997300;28;20739;-51
2021/01/09 09:35:22;;;;;;;17.13;12.07;;;1.60;99.90;;;;;;4997560;28;20826;-50
2021/01/09 09:37:51;;;;;;;15.50;10.77;;;1.70;99.90;;;;;;4997427;28;20480;-50
2021/01/09 09:40:26;;;;;;;16.57;11.53;;;1.80;99.90;;;;;;4997221;28;20605;-52
2021/01/09 09:42:54;;;;;;;16.93;11.60;;;1.80;99.90;;;;;;4996514;28;20550;-51
2021/01/09 09:45:22;;;;;;;15.60;10.80;;;1.80;99.90;;;;;;4994778;28;20936;-50
2021/01/09 09:47:51;;;;;;;17.50;11.33;;;1.80;99.90;;;;;;4992566;28;20479;-50
2021/01/09 09:50:19;;;;;;;15.50;11.43;;;1.90;99.90;;;;;;4992471;28;21070;-50
2021/01/09 09:52:57;;;;;;;19.00;12.30;;;1.80;99.90;;;;;;4995719;28;20989;-51
2021/01/09 09:55:26;;;;;;;15.07;10.73;;;1.80;99.90;;;;;;4995422;28;20749;-50
2021/01/09 09:58:08;;;;;;;16.60;10.97;;;1.90;99.90;;;;;;4996308;28;20690;-51
2021/01/09 10:00:42;;;;;;;16.30;10.77;;;1.80;99.90;;;;;;4992298;28;20505;-51
2021/01/09 10:03:10;;;;;;;16.27;11.07;;;1.80;99.90;;;;;;4995428;28;20479;-50
2021/01/09 10:05:37;;;;;;;15.80;10.83;;;1.80;99.90;;;;;;4995876;28;20519;-52
2021/01/09 10:08:14;;;;;;;16.60;10.60;;;1.70;99.90;;;;;;4996047;28;20619;-51
2021/01/09 10:10:43;;;;;;;16.70;11.07;;;1.90;99.90;;;;;;4993557;28;20837;-50
2021/01/09 10:13:10;;;;;;;16.60;10.97;;;1.90;99.90;;;;;;4995777;28;20484;-52
2021/01/09 10:15:38;;;;;;;17.30;10.73;;;1.90;99.90;;;;;;4995890;28;20480;-51
2021/01/09 10:18:05;;;;;;;16.70;11.63;;;1.90;99.90;;;;;;4996077;28;20492;-50
2021/01/09 10:20:33;;;;;;;16.47;11.50;;;1.80;99.90;;;;;;4992867;28;20496;-51
2021/01/09 10:23:00;;;;;;;15.93;10.73;;;1.80;99.90;;;;;;4996066;28;20603;-50
2021/01/09 10:25:28;;;;;;;17.33;11.83;;;1.80;99.90;;;;;;4995309;28;21378;-51
2021/01/09 10:27:56;;;;;;;16.23;11.23;;;1.90;99.90;;;;;;4995230;28;20499;-51
2021/01/09 10:30:24;;;;;;;15.50;10.90;;;1.90;99.90;;;;;;4993047;28;20825;-51
2021/01/09 10:32:51;;;;;;;16.93;11.00;;;1.90;99.90;;;;;;4997011;28;20505;-51
2021/01/09 10:35:19;;;;;;;15.90;10.43;;;1.90;99.90;;;;;;4996714;28;20491;-50
2021/01/09 10:37:47;;;;;;;14.47;10.33;;;1.90;99.90;;;;;;4996557;28;20488;-50
2021/01/09 10:40:15;;;;;;;15.80;10.63;;;1.90;99.90;;;;;;4993397;28;20554;-51
2021/01/09 10:42:43;;;;;;;14.67;10.47;;;1.90;99.90;;;;;;4996933;28;20599;-51
2021/01/09 10:45:14;;;;;;;14.87;10.27;;;1.90;99.90;;;;;;4996633;28;20566;-51
2021/01/09 10:47:41;;;;;;;16.17;10.73;;;1.90;99.90;;;;;;4996476;28;20488;-50
2021/01/09 10:50:28;;;;;;;15.03;10.70;;;1.90;99.90;;;;;;4993366;28;20487;-50
2021/01/09 10:52:56;;;;;;;14.13;9.43;;;2.00;99.90;;;;;;4995929;28;21006;-52
2021/01/09 10:55:23;;;;;;;14.07;10.07;;;1.90;99.90;;;;;;4996351;28;20488;-50
2021/01/09 10:57:51;;;;;;;15.47;9.77;;;1.90;99.90;;;;;;4995709;28;20549;-50
2021/01/09 11:00:21;;;;;;;14.27;10.07;;;2.00;99.90;;;;;;4993353;28;20491;-50
2021/01/09 11:02:49;;;;;;;15.37;10.70;;;1.90;99.90;;;;;;4995083;28;20480;-50
2021/01/09 11:05:16;;;;;;;13.27;9.33;;;1.90;99.90;;;;;;4995522;28;20500;-53
2021/01/09 11:07:44;;;;;;;15.33;10.33;;;1.90;99.90;;;;;;4996060;28;21027;-51
2021/01/09 11:10:12;;;;;;;17.13;11.03;;;1.80;99.90;;;;;;4994247;28;20485;-51
2021/01/09 11:12:39;;;;;;;14.77;10.20;;;1.90;99.90;;;;;;4996131;28;20493;-50
2021/01/09 11:15:09;;;;;;;13.90;9.10;;;1.90;99.90;;;;;;4996431;28;20496;-52
2021/01/09 11:17:36;;;;;;;15.17;10.47;;;2.00;99.90;;;;;;4996199;28;20861;-51
2021/01/09 11:20:06;;;;;;;14.87;10.00;;;1.90;99.90;;;;;;4992214;28;20542;-53
2021/01/09 11:22:37;;;;;;;14.90;10.03;;;2.00;99.90;;;;;;4995539;28;20837;-50
2021/01/09 11:25:05;;;;;;;14.13;9.57;;;2.00;99.90;;;;;;4995735;28;20543;-50
2021/01/09 11:27:32;;;;;;;14.67;10.40;;;2.00;99.90;;;;;;4994436;28;20511;-52
2021/01/09 11:29:59;;;;;;;13.47;9.80;;;2.10;99.90;;;;;;4993630;28;20516;-51
2021/01/09 11:32:28;;;;;;;14.20;9.60;;;2.10;99.90;;;;;;4994583;28;20492;-52
2021/01/09 11:34:55;;;;;;;14.37;9.70;;;2.20;99.90;;;;;;4995737;28;21072;-50
2021/01/09 11:37:24;;;;;;;13.17;9.50;;;2.30;99.90;;;;;;4995794;28;20495;-52
2021/01/09 11:39:54;;;;;;;14.13;9.73;;;2.30;99.90;;;;;;4993456;28;20492;-50
2021/01/09 11:42:22;;;;;;;14.23;9.87;;;2.30;99.90;;;;;;4995058;28;20592;-50
2021/01/09 11:44:49;;;;;;;13.93;10.10;;;2.30;99.90;;;;;;4994567;28;20481;-51
2021/01/09 11:47:16;;;;;;;13.97;10.00;;;2.40;99.90;;;;;;4994811;28;20567;-50
2021/01/09 11:49:45;;;;;;;14.23;10.00;;;2.50;99.90;;;;;;4993121;28;20488;-50
2021/01/09 11:52:12;;;;;;;15.00;10.63;;;2.50;99.90;;;;;;4994572;28;20578;-53
2021/01/09 11:54:40;;;;;;;13.13;9.50;;;2.50;99.90;;;;;;4995166;28;21088;-50
2021/01/09 11:57:07;;;;;;;14.50;9.90;;;2.60;99.90;;;;;;4994477;28;20563;-50
2021/01/09 11:59:34;;;;;;;13.43;9.53;;;2.60;99.90;;;;;;4991729;28;20845;-51
2021/01/09 12:02:02;;;;;;;14.00;9.93;;;2.60;99.90;;;;;;4992784;28;20487;-50
2021/01/09 12:04:30;;;;;;;14.70;10.07;;;2.60;99.90;;;;;;4994461;28;21072;-50
2021/01/09 12:06:58;;;;;;;14.43;9.67;;;2.50;99.90;;;;;;4995050;28;20540;-51
2021/01/09 12:09:25;;;;;;;12.53;9.30;;;2.60;99.90;;;;;;4993256;28;20492;-53
2021/01/09 12:11:56;;;;;;;12.97;9.70;;;2.60;99.90;;;;;;4994195;28;20490;-52
2021/01/09 12:14:24;;;;;;;13.47;9.70;;;2.50;99.90;;;;;;4994516;28;20585;-51
2021/01/09 12:16:52;;;;;;;13.50;9.60;;;2.50;99.90;;;;;;4995098;28;20485;-50
2021/01/09 12:19:24;;;;;;;14.50;9.63;;;2.40;99.90;;;;;;4993436;28;20492;-51
2021/01/09 12:21:52;;;;;;;11.90;8.73;;;2.40;99.90;;;;;;4992607;28;20496;-51
2021/01/09 12:24:22;;;;;;;11.87;8.47;;;2.50;99.90;;;;;;4993860;28;20961;-51
2021/01/09 12:26:52;;;;;;;11.33;8.30;;;2.50;99.90;;;;;;4992948;28;20919;-50
2021/01/09 12:29:21;;;;;;;12.93;9.37;;;2.60;99.90;;;;;;4994983;28;20505;-53
2021/01/09 12:31:49;;;;;;;13.37;9.73;;;2.70;99.90;;;;;;4992676;28;20636;-52
2021/01/09 12:34:17;;;;;;;12.90;9.80;;;2.60;99.90;;;;;;4994453;28;20497;-51
2021/01/09 12:36:50;;;;;;;12.73;9.23;;;2.60;99.90;;;;;;4994324;28;20802;-51
2021/01/09 12:39:17;;;;;;;14.27;10.20;;;2.60;99.90;;;;;;4994303;28;20567;-51
2021/01/09 12:41:46;;;;;;;13.20;9.23;;;2.60;99.90;;;;;;4991538;28;21035;-50
2021/01/09 12:44:34;;;;;;;11.50;9.07;;;2.60;99.90;;;;;;4993074;28;21033;-51
2021/01/09 12:47:01;;;;;;;13.00;9.20;;;2.60;99.90;;;;;;4995047;28;20983;-52
2021/01/09 12:49:28;;;;;;;12.53;9.10;;;2.60;99.90;;;;;;4992911;28;20579;-51